sensor_id;sensor_type;location;lat;lon;timestamp;pressure;altitude;pressure_sealevel;temperature;humidity
68986;BME280;56035;37.534;-122.308;2022-12-18T00:01:20;101501.19;;;10.23;61.28
68986;BME280;56035;37.534;-122.308;2022-12-18T00:03:47;101495.50;;;10.24;61.01
68986;BME280;56035;37.534;-122.308;2022-12-18T00:06:13;101496.13;;;10.20;61.39
68986;BME280;56035;37.534;-122.308;2022-12-18T00:08:41;101496.13;;;10.20;61.08
68986;BME280;56035;37.534;-122.308;2022-12-18T00:11:10;101499.16;;;10.12;61.21
68986;BME280;56035;37.534;-122.308;2022-12-18T00:13:37;101494.91;;;10.16;61.78
68986;BME280;56035;37.534;-122.308;2022-12-18T00:16:13;101494.31;;;10.07;63.23
68986;BME280;56035;37.534;-122.308;2022-12-18T00:18:39;101499.44;;;9.97;62.95
68986;BME280;56035;37.534;-122.308;2022-12-18T00:21:08;101494.84;;;9.84;63.69
68986;BME280;56035;37.534;-122.308;2022-12-18T00:23:35;101487.94;;;9.75;62.76
68986;BME280;56035;37.534;-122.308;2022-12-18T00:26:02;101494.38;;;9.55;67.31
68986;BME280;56035;37.534;-122.308;2022-12-18T00:28:28;101490.63;;;9.36;68.76
68986;BME280;56035;37.534;-122.308;2022-12-18T00:31:05;101493.19;;;9.18;70.17
68986;BME280;56035;37.534;-122.308;2022-12-18T00:33:32;101484.38;;;9.03;70.48
68986;BME280;56035;37.534;-122.308;2022-12-18T00:36:03;101485.66;;;8.87;71.04
68986;BME280;56035;37.534;-122.308;2022-12-18T00:38:30;101487.13;;;8.70;71.98
68986;BME280;56035;37.534;-122.308;2022-12-18T00:40:56;101486.31;;;8.56;72.78
68986;BME280;56035;37.534;-122.308;2022-12-18T00:43:22;101492.00;;;8.41;74.00
68986;BME280;56035;37.534;-122.308;2022-12-18T00:45:48;101498.91;;;8.24;74.29
68986;BME280;56035;37.534;-122.308;2022-12-18T00:48:15;101487.47;;;8.07;75.39
68986;BME280;56035;37.534;-122.308;2022-12-18T00:50:41;101484.09;;;7.91;76.49
68986;BME280;56035;37.534;-122.308;2022-12-18T00:53:07;101484.25;;;7.77;77.43
68986;BME280;56035;37.534;-122.308;2022-12-18T00:55:38;101485.25;;;7.62;77.83
68986;BME280;56035;37.534;-122.308;2022-12-18T00:58:05;101485.59;;;7.46;79.05
68986;BME280;56035;37.534;-122.308;2022-12-18T01:00:31;101480.25;;;7.31;79.12
68986;BME280;56035;37.534;-122.308;2022-12-18T01:02:57;101487.34;;;7.19;80.22
68986;BME280;56035;37.534;-122.308;2022-12-18T01:05:24;101482.41;;;7.01;81.67
68986;BME280;56035;37.534;-122.308;2022-12-18T01:07:50;101474.53;;;6.91;81.14
68986;BME280;56035;37.534;-122.308;2022-12-18T01:10:16;101485.19;;;6.79;81.51
68986;BME280;56035;37.534;-122.308;2022-12-18T01:12:42;101486.81;;;6.67;82.29
68986;BME280;56035;37.534;-122.308;2022-12-18T01:15:11;101487.72;;;6.53;83.35
68986;BME280;56035;37.534;-122.308;2022-12-18T01:17:37;101489.31;;;6.41;83.99
68986;BME280;56035;37.534;-122.308;2022-12-18T01:20:04;101495.09;;;6.31;84.16
68986;BME280;56035;37.534;-122.308;2022-12-18T01:22:31;101491.22;;;6.19;84.91
68986;BME280;56035;37.534;-122.308;2022-12-18T01:24:57;101488.81;;;6.09;85.11
68986;BME280;56035;37.534;-122.308;2022-12-18T01:27:23;101485.56;;;5.99;85.21
68986;BME280;56035;37.534;-122.308;2022-12-18T01:29:49;101488.34;;;5.91;86.20
68986;BME280;56035;37.534;-122.308;2022-12-18T01:32:15;101493.09;;;5.82;86.70
68986;BME280;56035;37.534;-122.308;2022-12-18T01:34:42;101478.03;;;5.71;86.97
68986;BME280;56035;37.534;-122.308;2022-12-18T01:37:08;101485.13;;;5.66;87.85
68986;BME280;56035;37.534;-122.308;2022-12-18T01:39:34;101497.69;;;5.60;87.60
68986;BME280;56035;37.534;-122.308;2022-12-18T01:42:02;101491.31;;;5.53;88.67
68986;BME280;56035;37.534;-122.308;2022-12-18T01:44:57;101492.44;;;5.44;89.44
68986;BME280;56035;37.534;-122.308;2022-12-18T01:49:58;101496.00;;;5.29;91.07
68986;BME280;56035;37.534;-122.308;2022-12-18T01:52:28;101493.03;;;5.24;91.35
68986;BME280;56035;37.534;-122.308;2022-12-18T01:54:56;101492.09;;;5.17;91.81
68986;BME280;56035;37.534;-122.308;2022-12-18T01:57:24;101492.47;;;5.14;92.52
68986;BME280;56035;37.534;-122.308;2022-12-18T01:59:53;101493.22;;;5.08;93.11
68986;BME280;56035;37.534;-122.308;2022-12-18T02:02:20;101499.06;;;5.05;93.77
68986;BME280;56035;37.534;-122.308;2022-12-18T02:04:47;101486.97;;;4.99;94.19
68986;BME280;56035;37.534;-122.308;2022-12-18T02:10:36;101492.09;;;4.87;96.15
68986;BME280;56035;37.534;-122.308;2022-12-18T02:13:14;101488.00;;;4.83;97.85
68986;BME280;56035;37.534;-122.308;2022-12-18T02:15:54;101482.28;;;4.78;98.23
68986;BME280;56035;37.534;-122.308;2022-12-18T02:18:28;101492.72;;;4.75;98.64
68986;BME280;56035;37.534;-122.308;2022-12-18T02:26:30;101491.94;;;4.66;100.00
68986;BME280;56035;37.534;-122.308;2022-12-18T02:29:20;101479.50;;;4.63;100.00
68986;BME280;56035;37.534;-122.308;2022-12-18T02:31:53;101483.66;;;4.59;100.00
68986;BME280;56035;37.534;-122.308;2022-12-18T02:34:23;101482.81;;;4.59;100.00
68986;BME280;56035;37.534;-122.308;2022-12-18T02:36:53;101485.44;;;4.52;100.00
68986;BME280;56035;37.534;-122.308;2022-12-18T02:39:21;101478.66;;;4.48;100.00
68986;BME280;56035;37.534;-122.308;2022-12-18T02:41:50;101486.31;;;4.44;100.00
68986;BME280;56035;37.534;-122.308;2022-12-18T02:44:17;101484.00;;;4.41;100.00
68986;BME280;56035;37.534;-122.308;2022-12-18T02:46:49;101479.91;;;4.37;100.00
68986;BME280;56035;37.534;-122.308;2022-12-18T02:52:25;101480.66;;;4.31;100.00
68986;BME280;56035;37.534;-122.308;2022-12-18T02:55:05;101482.91;;;4.28;100.00
68986;BME280;56035;37.534;-122.308;2022-12-18T02:57:40;101479.69;;;4.24;100.00
68986;BME280;56035;37.534;-122.308;2022-12-18T03:00:13;101483.81;;;4.20;100.00
68986;BME280;56035;37.534;-122.308;2022-12-18T03:05:20;101484.75;;;4.12;100.00
68986;BME280;56035;37.534;-122.308;2022-12-18T03:08:25;101478.50;;;4.04;100.00
68986;BME280;56035;37.534;-122.308;2022-12-18T03:11:00;101488.06;;;3.99;100.00
68986;BME280;56035;37.534;-122.308;2022-12-18T03:13:53;101473.09;;;3.95;100.00
68986;BME280;56035;37.534;-122.308;2022-12-18T03:16:24;101480.63;;;3.93;100.00
68986;BME280;56035;37.534;-122.308;2022-12-18T03:18:54;101478.59;;;3.87;100.00
68986;BME280;56035;37.534;-122.308;2022-12-18T03:21:37;101488.84;;;3.85;100.00
68986;BME280;56035;37.534;-122.308;2022-12-18T03:24:08;101481.00;;;3.82;100.00
68986;BME280;56035;37.534;-122.308;2022-12-18T03:26:37;101479.41;;;3.73;100.00
68986;BME280;56035;37.534;-122.308;2022-12-18T03:29:16;101484.16;;;3.71;100.00
68986;BME280;56035;37.534;-122.308;2022-12-18T03:31:51;101490.31;;;3.65;100.00
68986;BME280;56035;37.534;-122.308;2022-12-18T03:34:30;101489.00;;;3.61;100.00
68986;BME280;56035;37.534;-122.308;2022-12-18T03:36:57;101481.34;;;3.56;100.00
68986;BME280;56035;37.534;-122.308;2022-12-18T03:39:24;101492.44;;;3.55;100.00
68986;BME280;56035;37.534;-122.308;2022-12-18T03:42:27;101479.34;;;3.50;100.00
68986;BME280;56035;37.534;-122.308;2022-12-18T03:45:09;101483.63;;;3.44;100.00
68986;BME280;56035;37.534;-122.308;2022-12-18T03:48:25;101479.22;;;3.43;100.00
68986;BME280;56035;37.534;-122.308;2022-12-18T03:53:55;101478.03;;;3.38;100.00
68986;BME280;56035;37.534;-122.308;2022-12-18T03:56:26;101483.00;;;3.34;100.00
68986;BME280;56035;37.534;-122.308;2022-12-18T03:58:55;101475.19;;;3.31;100.00
68986;BME280;56035;37.534;-122.308;2022-12-18T04:01:28;101484.34;;;3.30;100.00
68986;BME280;56035;37.534;-122.308;2022-12-18T04:03:59;101482.00;;;3.27;100.00
68986;BME280;56035;37.534;-122.308;2022-12-18T04:06:27;101483.56;;;3.21;100.00
68986;BME280;56035;37.534;-122.308;2022-12-18T04:08:54;101475.56;;;3.20;100.00
68986;BME280;56035;37.534;-122.308;2022-12-18T04:11:20;101482.03;;;3.19;100.00
68986;BME280;56035;37.534;-122.308;2022-12-18T04:13:47;101476.94;;;3.16;100.00
68986;BME280;56035;37.534;-122.308;2022-12-18T04:16:13;101477.63;;;3.18;100.00
68986;BME280;56035;37.534;-122.308;2022-12-18T04:18:40;101470.47;;;3.17;100.00
68986;BME280;56035;37.534;-122.308;2022-12-18T04:21:06;101475.59;;;3.12;100.00
68986;BME280;56035;37.534;-122.308;2022-12-18T04:23:32;101475.75;;;3.10;100.00
68986;BME280;56035;37.534;-122.308;2022-12-18T04:25:59;101473.22;;;3.09;100.00
68986;BME280;56035;37.534;-122.308;2022-12-18T04:28:25;101473.56;;;3.05;100.00
68986;BME280;56035;37.534;-122.308;2022-12-18T04:30:51;101469.31;;;3.03;100.00
68986;BME280;56035;37.534;-122.308;2022-12-18T04:33:18;101473.25;;;3.00;100.00
68986;BME280;56035;37.534;-122.308;2022-12-18T04:35:44;101475.31;;;2.98;100.00
68986;BME280;56035;37.534;-122.308;2022-12-18T04:38:11;101473.28;;;2.92;100.00
68986;BME280;56035;37.534;-122.308;2022-12-18T04:40:38;101479.03;;;2.97;100.00
68986;BME280;56035;37.534;-122.308;2022-12-18T04:43:04;101472.75;;;2.97;100.00
68986;BME280;56035;37.534;-122.308;2022-12-18T04:45:31;101469.53;;;2.93;100.00
68986;BME280;56035;37.534;-122.308;2022-12-18T04:47:58;101474.31;;;2.91;100.00
68986;BME280;56035;37.534;-122.308;2022-12-18T04:50:24;101469.72;;;2.92;100.00
68986;BME280;56035;37.534;-122.308;2022-12-18T04:52:50;101472.09;;;2.87;100.00
68986;BME280;56035;37.534;-122.308;2022-12-18T04:55:16;101474.66;;;2.88;100.00
68986;BME280;56035;37.534;-122.308;2022-12-18T04:57:42;101475.16;;;2.84;100.00
68986;BME280;56035;37.534;-122.308;2022-12-18T05:00:09;101480.59;;;2.84;100.00
68986;BME280;56035;37.534;-122.308;2022-12-18T05:02:35;101479.75;;;2.83;100.00
68986;BME280;56035;37.534;-122.308;2022-12-18T05:05:02;101477.72;;;2.77;100.00
68986;BME280;56035;37.534;-122.308;2022-12-18T05:07:28;101480.44;;;2.77;100.00
68986;BME280;56035;37.534;-122.308;2022-12-18T05:09:54;101482.50;;;2.75;100.00
68986;BME280;56035;37.534;-122.308;2022-12-18T05:12:21;101481.63;;;2.74;100.00
68986;BME280;56035;37.534;-122.308;2022-12-18T05:14:47;101475.34;;;2.74;100.00
68986;BME280;56035;37.534;-122.308;2022-12-18T05:17:13;101478.41;;;2.71;100.00
68986;BME280;56035;37.534;-122.308;2022-12-18T05:19:39;101471.28;;;2.70;100.00
68986;BME280;56035;37.534;-122.308;2022-12-18T05:22:06;101470.78;;;2.66;100.00
68986;BME280;56035;37.534;-122.308;2022-12-18T05:24:33;101474.34;;;2.67;100.00
68986;BME280;56035;37.534;-122.308;2022-12-18T05:26:59;101470.09;;;2.64;100.00
68986;BME280;56035;37.534;-122.308;2022-12-18T05:29:25;101474.69;;;2.64;100.00
68986;BME280;56035;37.534;-122.308;2022-12-18T05:31:52;101469.59;;;2.61;100.00
68986;BME280;56035;37.534;-122.308;2022-12-18T05:34:18;101466.22;;;2.58;100.00
68986;BME280;56035;37.534;-122.308;2022-12-18T05:36:44;101467.06;;;2.59;100.00
68986;BME280;56035;37.534;-122.308;2022-12-18T05:39:10;101467.41;;;2.56;100.00
68986;BME280;56035;37.534;-122.308;2022-12-18T05:41:37;101466.38;;;2.57;100.00
68986;BME280;56035;37.534;-122.308;2022-12-18T05:44:03;101464.84;;;2.54;100.00
68986;BME280;56035;37.534;-122.308;2022-12-18T05:46:29;101465.53;;;2.48;100.00
68986;BME280;56035;37.534;-122.308;2022-12-18T05:48:59;101474.22;;;2.44;100.00
68986;BME280;56035;37.534;-122.308;2022-12-18T05:51:26;101475.75;;;2.38;100.00
68986;BME280;56035;37.534;-122.308;2022-12-18T05:53:53;101479.50;;;2.37;100.00
68986;BME280;56035;37.534;-122.308;2022-12-18T05:56:22;101484.56;;;2.32;100.00
68986;BME280;56035;37.534;-122.308;2022-12-18T05:58:52;101474.41;;;2.26;100.00
68986;BME280;56035;37.534;-122.308;2022-12-18T06:01:21;101485.28;;;2.26;100.00
68986;BME280;56035;37.534;-122.308;2022-12-18T06:03:48;101474.75;;;2.23;100.00
68986;BME280;56035;37.534;-122.308;2022-12-18T06:06:23;101470.31;;;2.22;100.00
68986;BME280;56035;37.534;-122.308;2022-12-18T06:08:50;101476.09;;;2.19;100.00
68986;BME280;56035;37.534;-122.308;2022-12-18T06:11:20;101473.69;;;2.16;100.00
68986;BME280;56035;37.534;-122.308;2022-12-18T06:13:46;101478.28;;;2.15;100.00
68986;BME280;56035;37.534;-122.308;2022-12-18T06:16:15;101472.53;;;2.10;100.00
68986;BME280;56035;37.534;-122.308;2022-12-18T06:18:41;101476.59;;;2.06;100.00
68986;BME280;56035;37.534;-122.308;2022-12-18T06:21:07;101468.94;;;2.01;100.00
68986;BME280;56035;37.534;-122.308;2022-12-18T06:23:33;101463.50;;;2.01;100.00
68986;BME280;56035;37.534;-122.308;2022-12-18T06:26:06;101466.56;;;1.98;100.00
68986;BME280;56035;37.534;-122.308;2022-12-18T06:28:32;101465.72;;;1.98;100.00
68986;BME280;56035;37.534;-122.308;2022-12-18T06:30:59;101477.97;;;1.94;100.00
68986;BME280;56035;37.534;-122.308;2022-12-18T06:33:28;101469.97;;;1.92;100.00
68986;BME280;56035;37.534;-122.308;2022-12-18T06:35:59;101477.25;;;1.92;100.00
68986;BME280;56035;37.534;-122.308;2022-12-18T06:38:25;101478.44;;;1.89;100.00
68986;BME280;56035;37.534;-122.308;2022-12-18T06:40:52;101484.22;;;1.86;100.00
68986;BME280;56035;37.534;-122.308;2022-12-18T06:43:18;101483.53;;;1.84;100.00
68986;BME280;56035;37.534;-122.308;2022-12-18T06:45:44;101485.41;;;1.83;100.00
68986;BME280;56035;37.534;-122.308;2022-12-18T06:48:11;101484.03;;;1.79;100.00
68986;BME280;56035;37.534;-122.308;2022-12-18T06:50:42;101484.03;;;1.79;100.00
68986;BME280;56035;37.534;-122.308;2022-12-18T06:53:08;101488.81;;;1.77;100.00
68986;BME280;56035;37.534;-122.308;2022-12-18T06:55:34;101495.78;;;1.80;100.00
68986;BME280;56035;37.534;-122.308;2022-12-18T06:58:00;101492.38;;;1.78;100.00
68986;BME280;56035;37.534;-122.308;2022-12-18T07:00:26;101497.09;;;1.76;100.00
68986;BME280;56035;37.534;-122.308;2022-12-18T07:02:52;101495.41;;;1.75;100.00
68986;BME280;56035;37.534;-122.308;2022-12-18T07:05:19;101495.75;;;1.72;100.00
68986;BME280;56035;37.534;-122.308;2022-12-18T07:07:45;101501.34;;;1.70;100.00
68986;BME280;56035;37.534;-122.308;2022-12-18T07:10:11;101496.06;;;1.69;100.00
68986;BME280;56035;37.534;-122.308;2022-12-18T07:12:37;101494.72;;;1.64;100.00
68986;BME280;56035;37.534;-122.308;2022-12-18T07:15:04;101491.16;;;1.64;100.00
68986;BME280;56035;37.534;-122.308;2022-12-18T07:17:30;101492.66;;;1.67;100.00
68986;BME280;56035;37.534;-122.308;2022-12-18T07:19:56;101491.16;;;1.64;100.00
68986;BME280;56035;37.534;-122.308;2022-12-18T07:22:23;101502.16;;;1.62;100.00
68986;BME280;56035;37.534;-122.308;2022-12-18T07:24:50;101492.31;;;1.61;100.00
68986;BME280;56035;37.534;-122.308;2022-12-18T07:27:17;101498.44;;;1.63;100.00
68986;BME280;56035;37.534;-122.308;2022-12-18T07:29:43;101492.81;;;1.57;100.00
68986;BME280;56035;37.534;-122.308;2022-12-18T07:32:09;101492.13;;;1.55;100.00
68986;BME280;56035;37.534;-122.308;2022-12-18T07:34:35;101487.72;;;1.54;100.00
68986;BME280;56035;37.534;-122.308;2022-12-18T07:37:02;101483.47;;;1.51;100.00
68986;BME280;56035;37.534;-122.308;2022-12-18T07:39:28;101481.09;;;1.48;100.00
68986;BME280;56035;37.534;-122.308;2022-12-18T07:41:54;101477.19;;;1.51;100.00
68986;BME280;56035;37.534;-122.308;2022-12-18T07:44:39;101472.94;;;1.48;100.00
68986;BME280;56035;37.534;-122.308;2022-12-18T07:47:05;101470.69;;;1.44;100.00
68986;BME280;56035;37.534;-122.308;2022-12-18T07:49:31;101472.06;;;1.39;100.00
68986;BME280;56035;37.534;-122.308;2022-12-18T07:51:57;101468.50;;;1.39;100.00
68986;BME280;56035;37.534;-122.308;2022-12-18T07:54:24;101467.97;;;1.35;100.00
68986;BME280;56035;37.534;-122.308;2022-12-18T07:56:51;101469.16;;;1.33;100.00
68986;BME280;56035;37.534;-122.308;2022-12-18T07:59:18;101458.63;;;1.30;100.00
68986;BME280;56035;37.534;-122.308;2022-12-18T08:01:44;101456.94;;;1.29;100.00
68986;BME280;56035;37.534;-122.308;2022-12-18T08:04:10;101467.09;;;1.27;100.00
68986;BME280;56035;37.534;-122.308;2022-12-18T08:06:37;101468.09;;;1.26;100.00
68986;BME280;56035;37.534;-122.308;2022-12-18T08:09:03;101467.09;;;1.27;100.00
68986;BME280;56035;37.534;-122.308;2022-12-18T08:11:29;101461.13;;;1.23;100.00
68986;BME280;56035;37.534;-122.308;2022-12-18T08:13:55;101470.13;;;1.24;100.00
68986;BME280;56035;37.534;-122.308;2022-12-18T08:16:22;101464.88;;;1.22;100.00
68986;BME280;56035;37.534;-122.308;2022-12-18T08:18:49;101461.31;;;1.22;100.00
68986;BME280;56035;37.534;-122.308;2022-12-18T08:21:21;101463.84;;;1.23;100.00
68986;BME280;56035;37.534;-122.308;2022-12-18T08:23:50;101463.84;;;1.23;100.00
68986;BME280;56035;37.534;-122.308;2022-12-18T08:26:16;101457.06;;;1.19;100.00
68986;BME280;56035;37.534;-122.308;2022-12-18T08:28:43;101458.94;;;1.19;100.00
68986;BME280;56035;37.534;-122.308;2022-12-18T08:31:09;101457.19;;;1.17;100.00
68986;BME280;56035;37.534;-122.308;2022-12-18T08:33:36;101448.41;;;1.15;100.00
68986;BME280;56035;37.534;-122.308;2022-12-18T08:36:04;101453.13;;;1.13;100.00
68986;BME280;56035;37.534;-122.308;2022-12-18T08:38:32;101450.06;;;1.08;100.00
68986;BME280;56035;37.534;-122.308;2022-12-18T08:41:09;101444.63;;;1.08;100.00
68986;BME280;56035;37.534;-122.308;2022-12-18T08:43:36;101442.91;;;1.07;100.00
68986;BME280;56035;37.534;-122.308;2022-12-18T08:46:22;101448.66;;;1.04;100.00
68986;BME280;56035;37.534;-122.308;2022-12-18T08:48:53;101446.97;;;1.03;100.00
68986;BME280;56035;37.534;-122.308;2022-12-18T08:51:23;101441.03;;;1.00;100.00
68986;BME280;56035;37.534;-122.308;2022-12-18T08:53:49;101451.19;;;0.98;100.00
68986;BME280;56035;37.534;-122.308;2022-12-18T08:56:16;101458.66;;;0.96;100.00
68986;BME280;56035;37.534;-122.308;2022-12-18T08:58:42;101461.53;;;0.94;100.00
68986;BME280;56035;37.534;-122.308;2022-12-18T09:01:10;101465.41;;;0.91;100.00
68986;BME280;56035;37.534;-122.308;2022-12-18T09:03:38;101454.91;;;0.88;100.00
68986;BME280;56035;37.534;-122.308;2022-12-18T09:06:04;101463.88;;;0.89;100.00
68986;BME280;56035;37.534;-122.308;2022-12-18T09:08:31;101459.78;;;0.85;100.00
68986;BME280;56035;37.534;-122.308;2022-12-18T09:10:57;101454.19;;;0.86;100.00
68986;BME280;56035;37.534;-122.308;2022-12-18T09:13:23;101455.38;;;0.84;100.00
68986;BME280;56035;37.534;-122.308;2022-12-18T09:15:51;101458.91;;;0.84;100.00
68986;BME280;56035;37.534;-122.308;2022-12-18T09:18:20;101463.34;;;0.85;100.00
68986;BME280;56035;37.534;-122.308;2022-12-18T09:20:46;101460.13;;;0.82;100.00
68986;BME280;56035;37.534;-122.308;2022-12-18T09:23:13;101471.13;;;0.80;100.00
68986;BME280;56035;37.534;-122.308;2022-12-18T09:25:39;101465.00;;;0.78;100.00
68986;BME280;56035;37.534;-122.308;2022-12-18T09:28:12;101467.88;;;0.77;100.00
68986;BME280;56035;37.534;-122.308;2022-12-18T09:30:40;101473.63;;;0.74;100.00
68986;BME280;56035;37.534;-122.308;2022-12-18T09:33:07;101471.94;;;0.73;100.00
68986;BME280;56035;37.534;-122.308;2022-12-18T09:35:36;101483.63;;;0.73;100.00
68986;BME280;56035;37.534;-122.308;2022-12-18T09:38:02;101479.22;;;0.72;100.00
68986;BME280;56035;37.534;-122.308;2022-12-18T09:40:34;101475.09;;;0.68;100.00
68986;BME280;56035;37.534;-122.308;2022-12-18T09:43:04;101478.00;;;0.66;100.00
68986;BME280;56035;37.534;-122.308;2022-12-18T09:45:39;101484.25;;;0.67;100.00
68986;BME280;56035;37.534;-122.308;2022-12-18T09:48:15;101487.16;;;0.65;100.00
68986;BME280;56035;37.534;-122.308;2022-12-18T09:50:45;101487.59;;;0.61;100.00
68986;BME280;56035;37.534;-122.308;2022-12-18T09:53:17;101484.19;;;0.59;100.00
68986;BME280;56035;37.534;-122.308;2022-12-18T09:55:46;101474.84;;;0.53;100.00
68986;BME280;56035;37.534;-122.308;2022-12-18T10:00:53;101488.56;;;0.52;100.00
68986;BME280;56035;37.534;-122.308;2022-12-18T10:03:19;101493.31;;;0.50;100.00
68986;BME280;56035;37.534;-122.308;2022-12-18T10:05:56;101485.31;;;0.48;100.00
68986;BME280;56035;37.534;-122.308;2022-12-18T10:11:21;101492.59;;;0.47;100.00
68986;BME280;56035;37.534;-122.308;2022-12-18T10:14:02;101492.91;;;0.44;100.00
68986;BME280;56035;37.534;-122.308;2022-12-18T10:19:43;101501.22;;;0.43;100.00
68986;BME280;56035;37.534;-122.308;2022-12-18T10:25:30;101508.13;;;0.37;100.00
68986;BME280;56035;37.534;-122.308;2022-12-18T10:28:10;101507.25;;;0.37;100.00
68986;BME280;56035;37.534;-122.308;2022-12-18T10:30:39;101508.25;;;0.36;100.00
68986;BME280;56035;37.534;-122.308;2022-12-18T10:33:08;101508.59;;;0.33;100.00
68986;BME280;56035;37.534;-122.308;2022-12-18T10:35:41;101500.47;;;0.33;100.00
68986;BME280;56035;37.534;-122.308;2022-12-18T10:40:57;101504.16;;;0.32;100.00
68986;BME280;56035;37.534;-122.308;2022-12-18T10:43:28;101508.59;;;0.33;100.00
68986;BME280;56035;37.534;-122.308;2022-12-18T10:51:08;101513.63;;;0.28;100.00
68986;BME280;56035;37.534;-122.308;2022-12-18T10:53:36;101506.81;;;0.23;100.00
68986;BME280;56035;37.534;-122.308;2022-12-18T10:56:04;101503.81;;;0.27;100.00
68986;BME280;56035;37.534;-122.308;2022-12-18T10:58:34;101507.50;;;0.26;100.00
68986;BME280;56035;37.534;-122.308;2022-12-18T11:01:15;101511.06;;;0.26;100.00
68986;BME280;56035;37.534;-122.308;2022-12-18T11:03:46;101512.91;;;0.26;100.00
68986;BME280;56035;37.534;-122.308;2022-12-18T11:06:18;101518.34;;;0.26;100.00
68986;BME280;56035;37.534;-122.308;2022-12-18T11:09:00;101514.94;;;0.23;100.00
68986;BME280;56035;37.534;-122.308;2022-12-18T11:11:27;101518.13;;;0.19;100.00
68986;BME280;56035;37.534;-122.308;2022-12-18T11:14:06;101517.25;;;0.18;100.00
68986;BME280;56035;37.534;-122.308;2022-12-18T11:16:49;101521.31;;;0.14;100.00
68986;BME280;56035;37.534;-122.308;2022-12-18T11:21:55;101514.19;;;0.13;100.00
68986;BME280;56035;37.534;-122.308;2022-12-18T11:24:31;101513.47;;;0.11;100.00
68986;BME280;56035;37.534;-122.308;2022-12-18T11:27:04;101511.31;;;0.15;100.00
68986;BME280;56035;37.534;-122.308;2022-12-18T11:29:39;101510.28;;;0.16;100.00
68986;BME280;56035;37.534;-122.308;2022-12-18T11:34:44;101516.09;;;0.21;100.00
68986;BME280;56035;37.534;-122.308;2022-12-18T11:37:13;101505.81;;;0.25;100.00
68986;BME280;56035;37.534;-122.308;2022-12-18T11:39:46;101510.91;;;0.28;100.00
68986;BME280;56035;37.534;-122.308;2022-12-18T11:42:35;101508.34;;;0.26;100.00
68986;BME280;56035;37.534;-122.308;2022-12-18T11:45:14;101510.06;;;0.27;100.00
68986;BME280;56035;37.534;-122.308;2022-12-18T11:50:23;101500.38;;;0.25;100.00
68986;BME280;56035;37.534;-122.308;2022-12-18T11:52:50;101505.09;;;0.22;100.00
68986;BME280;56035;37.534;-122.308;2022-12-18T11:55:41;101494.75;;;0.18;100.00
68986;BME280;56035;37.534;-122.308;2022-12-18T12:15:37;101494.03;;;0.16;100.00
68986;BME280;56035;37.534;-122.308;2022-12-18T12:23:47;101498.59;;;0.15;100.00
68986;BME280;56035;37.534;-122.308;2022-12-18T12:26:34;101497.75;;;0.15;100.00
68986;BME280;56035;37.534;-122.308;2022-12-18T12:32:20;101490.47;;;0.15;100.00
68986;BME280;56035;37.534;-122.308;2022-12-18T12:37:56;101483.38;;;0.14;100.00
68986;BME280;56035;37.534;-122.308;2022-12-18T12:40:27;101479.63;;;0.15;100.00
68986;BME280;56035;37.534;-122.308;2022-12-18T12:42:58;101491.81;;;0.11;100.00
68986;BME280;56035;37.534;-122.308;2022-12-18T12:45:53;101495.84;;;0.07;100.00
68986;BME280;56035;37.534;-122.308;2022-12-18T12:51:08;101509.16;;;0.01;100.00
68986;BME280;56035;37.534;-122.308;2022-12-18T12:53:37;101516.44;;;0.00;100.00
68986;BME280;56035;37.534;-122.308;2022-12-18T12:56:05;101500.50;;;-0.03;100.00
68986;BME280;56035;37.534;-122.308;2022-12-18T13:09:14;101492.91;;;0.01;100.00
68986;BME280;56035;37.534;-122.308;2022-12-18T13:11:42;101489.34;;;0.00;100.00
68986;BME280;56035;37.534;-122.308;2022-12-18T13:14:36;101495.75;;;-0.01;100.00
68986;BME280;56035;37.534;-122.308;2022-12-18T13:17:20;101482.38;;;-0.03;100.00
68986;BME280;56035;37.534;-122.308;2022-12-18T13:20:05;101490.34;;;-0.01;100.00
68986;BME280;56035;37.534;-122.308;2022-12-18T13:22:38;101482.38;;;-0.03;100.00
68986;BME280;56035;37.534;-122.308;2022-12-18T13:25:32;101488.47;;;-0.01;100.00
68986;BME280;56035;37.534;-122.308;2022-12-18T13:28:16;101490.34;;;-0.01;100.00
68986;BME280;56035;37.534;-122.308;2022-12-18T13:30:48;101498.63;;;-0.03;100.00
68986;BME280;56035;37.534;-122.308;2022-12-18T13:38:33;101492.97;;;-0.09;100.00
68986;BME280;56035;37.534;-122.308;2022-12-18T13:41:02;101486.16;;;-0.13;100.00
68986;BME280;56035;37.534;-122.308;2022-12-18T13:43:40;101489.31;;;-0.18;100.00
68986;BME280;56035;37.534;-122.308;2022-12-18T13:46:27;101488.63;;;-0.20;100.00
68986;BME280;56035;37.534;-122.308;2022-12-18T13:48:55;101489.63;;;-0.21;100.00
68986;BME280;56035;37.534;-122.308;2022-12-18T13:51:24;101492.66;;;-0.24;100.00
68986;BME280;56035;37.534;-122.308;2022-12-18T13:53:54;101496.38;;;-0.25;100.00
68986;BME280;56035;37.534;-122.308;2022-12-18T13:56:31;101508.06;;;-0.25;100.00
68986;BME280;56035;37.534;-122.308;2022-12-18T13:59:17;101504.63;;;-0.27;100.00
68986;BME280;56035;37.534;-122.308;2022-12-18T14:02:14;101498.22;;;-0.26;100.00
68986;BME280;56035;37.534;-122.308;2022-12-18T14:04:45;101500.41;;;-0.29;100.00
68986;BME280;56035;37.534;-122.308;2022-12-18T14:07:18;101497.69;;;-0.29;100.00
68986;BME280;56035;37.534;-122.308;2022-12-18T14:09:50;101499.53;;;-0.30;100.00
68986;BME280;56035;37.534;-122.308;2022-12-18T14:12:29;101500.00;;;-0.34;100.00